sensor_id;sensor_type;location;lat;lon;timestamp;P1;durP1;ratioP1;P2;durP2;ratioP2
75320;SDS011;68337;52.196;5.660;2024-03-07T00:00:04;36.22;;;19.55;;
75320;SDS011;68337;52.196;5.660;2024-03-07T00:02:39;38.58;;;22.13;;
75320;SDS011;68337;52.196;5.660;2024-03-07T00:05:06;33.80;;;19.85;;
75320;SDS011;68337;52.196;5.660;2024-03-07T00:07:33;37.08;;;21.23;;
75320;SDS011;68337;52.196;5.660;2024-03-07T00:09:59;34.22;;;20.48;;
75320;SDS011;68337;52.196;5.660;2024-03-07T00:12:28;40.30;;;21.02;;
75320;SDS011;68337;52.196;5.660;2024-03-07T00:14:55;40.08;;;22.25;;
75320;SDS011;68337;52.196;5.660;2024-03-07T00:17:21;41.60;;;21.75;;
75320;SDS011;68337;52.196;5.660;2024-03-07T00:19:48;40.47;;;22.63;;
75320;SDS011;68337;52.196;5.660;2024-03-07T00:22:14;37.60;;;21.13;;
75320;SDS011;68337;52.196;5.660;2024-03-07T00:24:40;40.97;;;21.65;;
75320;SDS011;68337;52.196;5.660;2024-03-07T00:27:07;36.92;;;20.92;;
75320;SDS011;68337;52.196;5.660;2024-03-07T00:29:33;45.15;;;23.60;;
75320;SDS011;68337;52.196;5.660;2024-03-07T00:32:02;39.15;;;22.25;;
75320;SDS011;68337;52.196;5.660;2024-03-07T00:34:29;37.80;;;23.00;;
75320;SDS011;68337;52.196;5.660;2024-03-07T00:36:55;43.75;;;22.75;;
75320;SDS011;68337;52.196;5.660;2024-03-07T00:39:24;46.53;;;25.08;;
75320;SDS011;68337;52.196;5.660;2024-03-07T00:41:50;43.58;;;24.17;;
75320;SDS011;68337;52.196;5.660;2024-03-07T00:44:16;42.25;;;24.63;;
75320;SDS011;68337;52.196;5.660;2024-03-07T00:46:42;40.60;;;22.73;;
75320;SDS011;68337;52.196;5.660;2024-03-07T00:49:08;43.95;;;23.98;;
75320;SDS011;68337;52.196;5.660;2024-03-07T00:51:34;45.90;;;24.13;;
75320;SDS011;68337;52.196;5.660;2024-03-07T00:54:00;44.97;;;23.83;;
75320;SDS011;68337;52.196;5.660;2024-03-07T00:56:26;42.22;;;22.55;;
75320;SDS011;68337;52.196;5.660;2024-03-07T00:58:53;41.60;;;23.27;;
75320;SDS011;68337;52.196;5.660;2024-03-07T01:01:19;40.38;;;23.52;;
75320;SDS011;68337;52.196;5.660;2024-03-07T01:03:45;45.05;;;23.40;;
75320;SDS011;68337;52.196;5.660;2024-03-07T01:06:10;44.75;;;22.77;;
75320;SDS011;68337;52.196;5.660;2024-03-07T01:08:37;39.80;;;23.02;;
75320;SDS011;68337;52.196;5.660;2024-03-07T01:11:03;43.28;;;23.20;;
75320;SDS011;68337;52.196;5.660;2024-03-07T01:13:37;40.22;;;21.85;;
75320;SDS011;68337;52.196;5.660;2024-03-07T01:16:04;43.08;;;22.90;;
75320;SDS011;68337;52.196;5.660;2024-03-07T01:18:30;44.05;;;22.55;;
75320;SDS011;68337;52.196;5.660;2024-03-07T01:20:58;40.08;;;22.45;;
75320;SDS011;68337;52.196;5.660;2024-03-07T01:23:25;41.17;;;22.75;;
75320;SDS011;68337;52.196;5.660;2024-03-07T01:25:51;46.33;;;22.58;;
75320;SDS011;68337;52.196;5.660;2024-03-07T01:28:16;44.30;;;24.50;;
75320;SDS011;68337;52.196;5.660;2024-03-07T01:30:43;39.88;;;22.02;;
75320;SDS011;68337;52.196;5.660;2024-03-07T01:33:09;39.53;;;23.15;;
75320;SDS011;68337;52.196;5.660;2024-03-07T01:35:34;41.47;;;22.77;;
75320;SDS011;68337;52.196;5.660;2024-03-07T01:38:01;44.17;;;23.15;;
75320;SDS011;68337;52.196;5.660;2024-03-07T01:40:28;38.55;;;21.42;;
75320;SDS011;68337;52.196;5.660;2024-03-07T01:42:53;43.10;;;22.20;;
75320;SDS011;68337;52.196;5.660;2024-03-07T01:45:20;40.80;;;22.52;;
75320;SDS011;68337;52.196;5.660;2024-03-07T01:47:45;42.25;;;22.38;;
75320;SDS011;68337;52.196;5.660;2024-03-07T01:50:11;42.58;;;23.27;;
75320;SDS011;68337;52.196;5.660;2024-03-07T01:52:39;41.45;;;24.23;;
75320;SDS011;68337;52.196;5.660;2024-03-07T01:55:07;46.60;;;22.85;;
75320;SDS011;68337;52.196;5.660;2024-03-07T01:57:35;41.05;;;22.73;;
75320;SDS011;68337;52.196;5.660;2024-03-07T02:00:01;42.10;;;23.23;;
75320;SDS011;68337;52.196;5.660;2024-03-07T02:02:34;45.05;;;23.58;;
75320;SDS011;68337;52.196;5.660;2024-03-07T02:05:00;54.05;;;27.75;;
75320;SDS011;68337;52.196;5.660;2024-03-07T02:07:26;52.28;;;26.10;;
75320;SDS011;68337;52.196;5.660;2024-03-07T02:10:02;45.25;;;24.45;;
75320;SDS011;68337;52.196;5.660;2024-03-07T02:12:30;50.40;;;26.35;;
75320;SDS011;68337;52.196;5.660;2024-03-07T02:14:56;55.05;;;27.90;;
75320;SDS011;68337;52.196;5.660;2024-03-07T02:17:22;54.92;;;28.80;;
75320;SDS011;68337;52.196;5.660;2024-03-07T02:19:50;49.35;;;27.95;;
75320;SDS011;68337;52.196;5.660;2024-03-07T02:22:16;53.17;;;26.58;;
75320;SDS011;68337;52.196;5.660;2024-03-07T02:24:42;58.00;;;29.77;;
75320;SDS011;68337;52.196;5.660;2024-03-07T02:27:08;57.15;;;29.42;;
75320;SDS011;68337;52.196;5.660;2024-03-07T02:29:34;57.47;;;29.13;;
75320;SDS011;68337;52.196;5.660;2024-03-07T02:32:01;59.17;;;30.23;;
75320;SDS011;68337;52.196;5.660;2024-03-07T02:34:27;63.55;;;32.05;;
75320;SDS011;68337;52.196;5.660;2024-03-07T02:36:54;66.63;;;31.48;;
75320;SDS011;68337;52.196;5.660;2024-03-07T02:39:19;65.03;;;31.35;;
75320;SDS011;68337;52.196;5.660;2024-03-07T02:41:46;68.60;;;33.90;;
75320;SDS011;68337;52.196;5.660;2024-03-07T02:44:13;69.15;;;31.80;;
75320;SDS011;68337;52.196;5.660;2024-03-07T02:46:39;70.22;;;34.20;;
75320;SDS011;68337;52.196;5.660;2024-03-07T02:49:05;63.40;;;32.30;;
75320;SDS011;68337;52.196;5.660;2024-03-07T02:51:31;65.45;;;33.05;;
75320;SDS011;68337;52.196;5.660;2024-03-07T02:53:57;66.07;;;33.65;;
75320;SDS011;68337;52.196;5.660;2024-03-07T02:56:23;71.38;;;34.83;;
75320;SDS011;68337;52.196;5.660;2024-03-07T02:58:51;66.95;;;33.00;;
75320;SDS011;68337;52.196;5.660;2024-03-07T03:01:16;73.97;;;33.38;;
75320;SDS011;68337;52.196;5.660;2024-03-07T03:03:43;75.50;;;34.83;;
75320;SDS011;68337;52.196;5.660;2024-03-07T03:06:09;66.20;;;32.30;;
75320;SDS011;68337;52.196;5.660;2024-03-07T03:08:36;66.20;;;33.55;;
75320;SDS011;68337;52.196;5.660;2024-03-07T03:11:02;74.95;;;33.20;;
75320;SDS011;68337;52.196;5.660;2024-03-07T03:13:28;62.65;;;31.88;;
75320;SDS011;68337;52.196;5.660;2024-03-07T03:15:54;61.33;;;31.45;;
75320;SDS011;68337;52.196;5.660;2024-03-07T03:18:21;66.95;;;31.95;;
75320;SDS011;68337;52.196;5.660;2024-03-07T03:20:47;69.65;;;34.25;;
75320;SDS011;68337;52.196;5.660;2024-03-07T03:23:13;62.67;;;32.10;;
75320;SDS011;68337;52.196;5.660;2024-03-07T03:25:39;74.40;;;34.60;;
75320;SDS011;68337;52.196;5.660;2024-03-07T03:28:06;73.05;;;34.63;;
75320;SDS011;68337;52.196;5.660;2024-03-07T03:30:36;68.20;;;34.35;;
75320;SDS011;68337;52.196;5.660;2024-03-07T03:33:03;70.82;;;33.80;;
75320;SDS011;68337;52.196;5.660;2024-03-07T03:35:29;66.10;;;34.70;;
75320;SDS011;68337;52.196;5.660;2024-03-07T03:37:55;65.03;;;34.20;;
75320;SDS011;68337;52.196;5.660;2024-03-07T03:40:20;67.32;;;34.28;;
75320;SDS011;68337;52.196;5.660;2024-03-07T03:42:46;69.57;;;35.25;;
75320;SDS011;68337;52.196;5.660;2024-03-07T03:45:13;73.45;;;34.78;;
75320;SDS011;68337;52.196;5.660;2024-03-07T03:47:40;71.90;;;34.47;;
75320;SDS011;68337;52.196;5.660;2024-03-07T03:50:08;74.63;;;34.13;;
75320;SDS011;68337;52.196;5.660;2024-03-07T03:52:35;78.75;;;34.65;;
75320;SDS011;68337;52.196;5.660;2024-03-07T03:55:01;75.40;;;36.25;;
75320;SDS011;68337;52.196;5.660;2024-03-07T03:57:29;68.70;;;34.05;;
75320;SDS011;68337;52.196;5.660;2024-03-07T03:59:55;81.20;;;37.42;;
75320;SDS011;68337;52.196;5.660;2024-03-07T04:02:21;75.78;;;35.53;;
75320;SDS011;68337;52.196;5.660;2024-03-07T04:04:50;68.25;;;33.85;;
75320;SDS011;68337;52.196;5.660;2024-03-07T04:07:18;80.30;;;37.22;;
75320;SDS011;68337;52.196;5.660;2024-03-07T04:09:44;75.80;;;36.72;;
75320;SDS011;68337;52.196;5.660;2024-03-07T04:12:11;76.07;;;37.50;;
75320;SDS011;68337;52.196;5.660;2024-03-07T04:14:38;73.03;;;34.83;;
75320;SDS011;68337;52.196;5.660;2024-03-07T04:17:06;71.68;;;35.85;;
75320;SDS011;68337;52.196;5.660;2024-03-07T04:19:36;67.03;;;33.67;;
75320;SDS011;68337;52.196;5.660;2024-03-07T04:22:03;64.82;;;33.85;;
75320;SDS011;68337;52.196;5.660;2024-03-07T04:24:31;65.00;;;33.85;;
75320;SDS011;68337;52.196;5.660;2024-03-07T04:26:59;69.82;;;35.20;;
75320;SDS011;68337;52.196;5.660;2024-03-07T04:29:26;72.22;;;33.70;;
75320;SDS011;68337;52.196;5.660;2024-03-07T04:31:52;62.15;;;31.13;;
75320;SDS011;68337;52.196;5.660;2024-03-07T04:34:18;66.80;;;34.00;;
75320;SDS011;68337;52.196;5.660;2024-03-07T04:36:44;73.28;;;33.83;;
75320;SDS011;68337;52.196;5.660;2024-03-07T04:39:10;67.80;;;32.53;;
75320;SDS011;68337;52.196;5.660;2024-03-07T04:41:50;70.38;;;33.80;;
75320;SDS011;68337;52.196;5.660;2024-03-07T04:44:17;70.15;;;34.83;;
75320;SDS011;68337;52.196;5.660;2024-03-07T04:46:46;70.30;;;33.45;;
75320;SDS011;68337;52.196;5.660;2024-03-07T04:49:14;66.32;;;34.28;;
75320;SDS011;68337;52.196;5.660;2024-03-07T04:51:40;64.70;;;33.33;;
75320;SDS011;68337;52.196;5.660;2024-03-07T04:54:05;70.43;;;33.35;;
75320;SDS011;68337;52.196;5.660;2024-03-07T04:56:31;69.72;;;35.13;;
75320;SDS011;68337;52.196;5.660;2024-03-07T04:58:57;67.65;;;34.30;;
75320;SDS011;68337;52.196;5.660;2024-03-07T05:01:23;76.45;;;34.15;;
75320;SDS011;68337;52.196;5.660;2024-03-07T05:03:50;73.60;;;34.03;;
75320;SDS011;68337;52.196;5.660;2024-03-07T05:06:17;74.72;;;32.17;;
75320;SDS011;68337;52.196;5.660;2024-03-07T05:08:43;66.00;;;32.95;;
75320;SDS011;68337;52.196;5.660;2024-03-07T05:11:09;71.85;;;35.47;;
75320;SDS011;68337;52.196;5.660;2024-03-07T05:13:35;68.72;;;34.35;;
75320;SDS011;68337;52.196;5.660;2024-03-07T05:16:02;69.70;;;33.72;;
75320;SDS011;68337;52.196;5.660;2024-03-07T05:18:28;69.93;;;35.75;;
75320;SDS011;68337;52.196;5.660;2024-03-07T05:20:54;68.65;;;34.88;;
75320;SDS011;68337;52.196;5.660;2024-03-07T05:23:20;73.47;;;36.10;;
75320;SDS011;68337;52.196;5.660;2024-03-07T05:25:46;69.95;;;34.20;;
75320;SDS011;68337;52.196;5.660;2024-03-07T05:28:11;71.35;;;34.67;;
75320;SDS011;68337;52.196;5.660;2024-03-07T05:30:37;69.97;;;35.60;;
75320;SDS011;68337;52.196;5.660;2024-03-07T05:33:03;68.35;;;35.50;;
75320;SDS011;68337;52.196;5.660;2024-03-07T05:35:29;69.32;;;35.50;;
75320;SDS011;68337;52.196;5.660;2024-03-07T05:37:55;66.78;;;34.88;;
75320;SDS011;68337;52.196;5.660;2024-03-07T05:40:21;74.90;;;36.95;;
75320;SDS011;68337;52.196;5.660;2024-03-07T05:42:48;71.85;;;35.75;;
75320;SDS011;68337;52.196;5.660;2024-03-07T05:45:14;71.13;;;35.28;;
75320;SDS011;68337;52.196;5.660;2024-03-07T05:47:40;70.25;;;35.42;;
75320;SDS011;68337;52.196;5.660;2024-03-07T05:50:06;73.60;;;36.45;;
75320;SDS011;68337;52.196;5.660;2024-03-07T05:52:33;80.10;;;37.38;;
75320;SDS011;68337;52.196;5.660;2024-03-07T05:55:00;63.92;;;34.08;;
75320;SDS011;68337;52.196;5.660;2024-03-07T05:57:25;69.85;;;34.80;;
75320;SDS011;68337;52.196;5.660;2024-03-07T05:59:51;68.07;;;33.05;;
75320;SDS011;68337;52.196;5.660;2024-03-07T06:02:17;68.28;;;34.38;;
75320;SDS011;68337;52.196;5.660;2024-03-07T06:04:44;69.05;;;34.20;;
75320;SDS011;68337;52.196;5.660;2024-03-07T06:07:11;63.72;;;33.35;;
75320;SDS011;68337;52.196;5.660;2024-03-07T06:09:37;67.25;;;33.85;;
75320;SDS011;68337;52.196;5.660;2024-03-07T06:12:03;66.43;;;35.53;;
75320;SDS011;68337;52.196;5.660;2024-03-07T06:14:29;70.90;;;34.60;;
75320;SDS011;68337;52.196;5.660;2024-03-07T06:16:55;65.95;;;34.10;;
75320;SDS011;68337;52.196;5.660;2024-03-07T06:19:23;68.70;;;34.40;;
75320;SDS011;68337;52.196;5.660;2024-03-07T06:21:49;66.07;;;34.75;;
75320;SDS011;68337;52.196;5.660;2024-03-07T06:24:14;64.18;;;33.60;;
75320;SDS011;68337;52.196;5.660;2024-03-07T06:26:42;66.78;;;33.65;;
75320;SDS011;68337;52.196;5.660;2024-03-07T06:29:08;68.05;;;34.03;;
75320;SDS011;68337;52.196;5.660;2024-03-07T06:31:36;68.13;;;34.70;;
75320;SDS011;68337;52.196;5.660;2024-03-07T06:34:02;66.55;;;34.05;;
75320;SDS011;68337;52.196;5.660;2024-03-07T06:36:28;61.50;;;32.45;;
75320;SDS011;68337;52.196;5.660;2024-03-07T06:38:54;62.72;;;33.53;;
75320;SDS011;68337;52.196;5.660;2024-03-07T06:41:21;57.38;;;31.80;;
75320;SDS011;68337;52.196;5.660;2024-03-07T06:43:47;71.93;;;33.65;;
75320;SDS011;68337;52.196;5.660;2024-03-07T06:46:14;60.40;;;33.17;;
75320;SDS011;68337;52.196;5.660;2024-03-07T06:48:41;62.72;;;32.42;;
75320;SDS011;68337;52.196;5.660;2024-03-07T06:51:09;66.93;;;35.25;;
75320;SDS011;68337;52.196;5.660;2024-03-07T06:53:36;63.35;;;33.72;;
75320;SDS011;68337;52.196;5.660;2024-03-07T06:56:02;68.45;;;34.90;;
75320;SDS011;68337;52.196;5.660;2024-03-07T06:58:27;59.70;;;32.47;;
75320;SDS011;68337;52.196;5.660;2024-03-07T07:00:53;64.47;;;33.22;;
75320;SDS011;68337;52.196;5.660;2024-03-07T07:03:19;59.65;;;32.60;;
75320;SDS011;68337;52.196;5.660;2024-03-07T07:05:47;60.60;;;32.28;;
75320;SDS011;68337;52.196;5.660;2024-03-07T07:08:13;60.90;;;31.98;;
75320;SDS011;68337;52.196;5.660;2024-03-07T07:10:39;61.90;;;33.00;;
75320;SDS011;68337;52.196;5.660;2024-03-07T07:13:06;61.03;;;32.10;;
75320;SDS011;68337;52.196;5.660;2024-03-07T07:15:32;60.08;;;31.63;;
75320;SDS011;68337;52.196;5.660;2024-03-07T07:17:58;59.60;;;31.80;;
75320;SDS011;68337;52.196;5.660;2024-03-07T07:20:24;64.25;;;30.83;;
75320;SDS011;68337;52.196;5.660;2024-03-07T07:22:50;55.42;;;31.10;;
75320;SDS011;68337;52.196;5.660;2024-03-07T07:25:16;57.75;;;31.23;;
75320;SDS011;68337;52.196;5.660;2024-03-07T07:30:10;52.90;;;29.55;;
75320;SDS011;68337;52.196;5.660;2024-03-07T07:32:36;57.08;;;30.67;;
75320;SDS011;68337;52.196;5.660;2024-03-07T07:35:02;55.53;;;31.25;;
75320;SDS011;68337;52.196;5.660;2024-03-07T07:37:30;55.58;;;30.98;;
75320;SDS011;68337;52.196;5.660;2024-03-07T07:39:56;55.47;;;30.30;;
75320;SDS011;68337;52.196;5.660;2024-03-07T07:42:21;56.08;;;30.17;;
75320;SDS011;68337;52.196;5.660;2024-03-07T07:44:47;52.10;;;30.33;;
75320;SDS011;68337;52.196;5.660;2024-03-07T07:47:13;56.50;;;31.05;;
75320;SDS011;68337;52.196;5.660;2024-03-07T07:49:38;57.75;;;30.73;;
75320;SDS011;68337;52.196;5.660;2024-03-07T07:52:05;53.88;;;31.60;;
75320;SDS011;68337;52.196;5.660;2024-03-07T07:54:32;55.95;;;30.50;;
75320;SDS011;68337;52.196;5.660;2024-03-07T07:56:58;54.85;;;29.92;;
75320;SDS011;68337;52.196;5.660;2024-03-07T07:59:24;56.35;;;31.58;;
75320;SDS011;68337;52.196;5.660;2024-03-07T08:01:49;54.15;;;29.85;;
75320;SDS011;68337;52.196;5.660;2024-03-07T08:04:18;50.65;;;30.08;;
75320;SDS011;68337;52.196;5.660;2024-03-07T08:06:43;52.38;;;29.75;;
75320;SDS011;68337;52.196;5.660;2024-03-07T08:09:09;44.90;;;27.27;;
75320;SDS011;68337;52.196;5.660;2024-03-07T08:11:35;46.00;;;28.48;;
75320;SDS011;68337;52.196;5.660;2024-03-07T08:14:03;42.67;;;26.35;;
75320;SDS011;68337;52.196;5.660;2024-03-07T08:16:29;44.70;;;27.00;;
75320;SDS011;68337;52.196;5.660;2024-03-07T08:18:54;39.67;;;24.90;;
75320;SDS011;68337;52.196;5.660;2024-03-07T08:21:21;41.17;;;25.42;;
75320;SDS011;68337;52.196;5.660;2024-03-07T08:23:48;38.72;;;24.80;;
75320;SDS011;68337;52.196;5.660;2024-03-07T08:26:14;37.08;;;24.23;;
75320;SDS011;68337;52.196;5.660;2024-03-07T08:28:40;33.78;;;22.92;;
75320;SDS011;68337;52.196;5.660;2024-03-07T08:31:06;34.75;;;21.60;;
75320;SDS011;68337;52.196;5.660;2024-03-07T08:33:32;33.83;;;21.05;;
75320;SDS011;68337;52.196;5.660;2024-03-07T08:35:58;29.95;;;21.00;;
75320;SDS011;68337;52.196;5.660;2024-03-07T08:38:24;37.78;;;22.02;;
75320;SDS011;68337;52.196;5.660;2024-03-07T08:40:50;33.58;;;20.48;;
75320;SDS011;68337;52.196;5.660;2024-03-07T08:43:16;30.30;;;20.70;;
75320;SDS011;68337;52.196;5.660;2024-03-07T08:45:41;28.50;;;20.17;;
75320;SDS011;68337;52.196;5.660;2024-03-07T08:48:07;25.48;;;17.40;;
75320;SDS011;68337;52.196;5.660;2024-03-07T08:50:34;25.67;;;17.13;;
75320;SDS011;68337;52.196;5.660;2024-03-07T08:53:02;25.75;;;18.42;;
75320;SDS011;68337;52.196;5.660;2024-03-07T08:55:30;21.88;;;16.42;;
75320;SDS011;68337;52.196;5.660;2024-03-07T08:57:56;22.50;;;16.77;;
75320;SDS011;68337;52.196;5.660;2024-03-07T09:00:22;21.98;;;16.23;;
75320;SDS011;68337;52.196;5.660;2024-03-07T09:02:49;19.40;;;15.38;;
75320;SDS011;68337;52.196;5.660;2024-03-07T09:05:17;22.40;;;15.88;;
75320;SDS011;68337;52.196;5.660;2024-03-07T09:07:43;24.58;;;15.40;;
75320;SDS011;68337;52.196;5.660;2024-03-07T09:10:10;19.33;;;14.25;;
75320;SDS011;68337;52.196;5.660;2024-03-07T09:12:36;19.05;;;13.95;;
75320;SDS011;68337;52.196;5.660;2024-03-07T09:15:02;20.60;;;15.02;;
75320;SDS011;68337;52.196;5.660;2024-03-07T09:17:29;20.55;;;13.75;;
75320;SDS011;68337;52.196;5.660;2024-03-07T09:19:54;18.38;;;13.93;;
75320;SDS011;68337;52.196;5.660;2024-03-07T09:22:20;20.20;;;12.90;;
75320;SDS011;68337;52.196;5.660;2024-03-07T09:24:46;20.17;;;14.30;;
75320;SDS011;68337;52.196;5.660;2024-03-07T09:27:12;20.20;;;14.13;;
75320;SDS011;68337;52.196;5.660;2024-03-07T09:29:40;21.25;;;14.13;;
75320;SDS011;68337;52.196;5.660;2024-03-07T09:32:06;22.23;;;14.13;;
75320;SDS011;68337;52.196;5.660;2024-03-07T09:34:34;19.40;;;14.30;;
75320;SDS011;68337;52.196;5.660;2024-03-07T09:37:01;19.75;;;13.82;;
75320;SDS011;68337;52.196;5.660;2024-03-07T09:39:27;22.02;;;15.13;;
75320;SDS011;68337;52.196;5.660;2024-03-07T09:41:53;21.50;;;15.80;;
75320;SDS011;68337;52.196;5.660;2024-03-07T09:44:20;20.52;;;14.18;;
75320;SDS011;68337;52.196;5.660;2024-03-07T09:46:50;22.40;;;14.98;;
75320;SDS011;68337;52.196;5.660;2024-03-07T09:49:18;21.00;;;14.13;;
75320;SDS011;68337;52.196;5.660;2024-03-07T09:51:47;21.35;;;13.68;;
75320;SDS011;68337;52.196;5.660;2024-03-07T09:54:19;20.92;;;14.35;;
75320;SDS011;68337;52.196;5.660;2024-03-07T09:56:49;20.80;;;13.98;;
75320;SDS011;68337;52.196;5.660;2024-03-07T09:59:17;21.17;;;14.60;;
75320;SDS011;68337;52.196;5.660;2024-03-07T10:01:47;18.38;;;12.82;;
75320;SDS011;68337;52.196;5.660;2024-03-07T10:04:15;21.05;;;13.68;;
75320;SDS011;68337;52.196;5.660;2024-03-07T10:06:46;18.92;;;13.48;;
75320;SDS011;68337;52.196;5.660;2024-03-07T10:09:12;17.20;;;13.40;;
75320;SDS011;68337;52.196;5.660;2024-03-07T10:11:39;21.17;;;14.77;;
75320;SDS011;68337;52.196;5.660;2024-03-07T10:14:07;23.33;;;15.23;;
75320;SDS011;68337;52.196;5.660;2024-03-07T10:16:34;17.95;;;14.27;;
75320;SDS011;68337;52.196;5.660;2024-03-07T10:18:59;18.10;;;13.25;;
75320;SDS011;68337;52.196;5.660;2024-03-07T10:21:29;20.73;;;13.88;;
75320;SDS011;68337;52.196;5.660;2024-03-07T10:24:05;22.63;;;14.13;;
75320;SDS011;68337;52.196;5.660;2024-03-07T10:26:34;18.27;;;14.10;;
75320;SDS011;68337;52.196;5.660;2024-03-07T10:29:00;21.05;;;14.43;;
75320;SDS011;68337;52.196;5.660;2024-03-07T10:31:29;20.55;;;14.32;;
75320;SDS011;68337;52.196;5.660;2024-03-07T10:33:59;20.15;;;14.13;;
75320;SDS011;68337;52.196;5.660;2024-03-07T10:36:27;23.70;;;14.77;;
75320;SDS011;68337;52.196;5.660;2024-03-07T10:39:00;20.75;;;14.65;;
75320;SDS011;68337;52.196;5.660;2024-03-07T10:41:39;22.77;;;14.70;;
75320;SDS011;68337;52.196;5.660;2024-03-07T10:44:10;20.67;;;13.15;;
75320;SDS011;68337;52.196;5.660;2024-03-07T10:46:41;19.73;;;14.05;;
75320;SDS011;68337;52.196;5.660;2024-03-07T10:49:12;23.05;;;15.40;;
75320;SDS011;68337;52.196;5.660;2024-03-07T10:51:44;19.70;;;14.07;;
75320;SDS011;68337;52.196;5.660;2024-03-07T10:54:18;19.13;;;14.45;;
75320;SDS011;68337;52.196;5.660;2024-03-07T10:59:45;22.88;;;15.57;;
75320;SDS011;68337;52.196;5.660;2024-03-07T11:04:50;22.45;;;14.93;;
75320;SDS011;68337;52.196;5.660;2024-03-07T11:07:17;23.65;;;14.52;;
75320;SDS011;68337;52.196;5.660;2024-03-07T11:09:47;20.02;;;14.77;;
75320;SDS011;68337;52.196;5.660;2024-03-07T11:12:17;22.17;;;15.07;;
75320;SDS011;68337;52.196;5.660;2024-03-07T11:14:47;22.60;;;14.57;;
75320;SDS011;68337;52.196;5.660;2024-03-07T11:17:15;21.17;;;13.90;;
75320;SDS011;68337;52.196;5.660;2024-03-07T11:19:44;19.67;;;14.32;;
75320;SDS011;68337;52.196;5.660;2024-03-07T11:22:10;21.40;;;14.55;;
75320;SDS011;68337;52.196;5.660;2024-03-07T11:24:42;20.25;;;14.35;;
75320;SDS011;68337;52.196;5.660;2024-03-07T11:27:09;22.05;;;14.25;;
75320;SDS011;68337;52.196;5.660;2024-03-07T11:29:45;26.00;;;14.27;;
75320;SDS011;68337;52.196;5.660;2024-03-07T11:32:19;21.58;;;14.40;;
75320;SDS011;68337;52.196;5.660;2024-03-07T11:34:47;18.50;;;13.38;;
75320;SDS011;68337;52.196;5.660;2024-03-07T11:37:20;21.65;;;14.40;;
75320;SDS011;68337;52.196;5.660;2024-03-07T11:40:06;19.05;;;13.35;;
75320;SDS011;68337;52.196;5.660;2024-03-07T11:42:33;21.33;;;14.27;;
75320;SDS011;68337;52.196;5.660;2024-03-07T11:45:01;18.55;;;13.40;;
75320;SDS011;68337;52.196;5.660;2024-03-07T11:47:35;20.30;;;14.05;;
75320;SDS011;68337;52.196;5.660;2024-03-07T11:50:03;22.98;;;13.73;;
75320;SDS011;68337;52.196;5.660;2024-03-07T11:52:33;21.65;;;14.10;;
75320;SDS011;68337;52.196;5.660;2024-03-07T11:55:01;21.45;;;14.32;;
75320;SDS011;68337;52.196;5.660;2024-03-07T11:57:29;17.63;;;12.45;;
75320;SDS011;68337;52.196;5.660;2024-03-07T12:00:02;21.67;;;13.88;;
75320;SDS011;68337;52.196;5.660;2024-03-07T12:02:36;21.55;;;13.25;;
75320;SDS011;68337;52.196;5.660;2024-03-07T12:05:03;18.70;;;12.93;;
75320;SDS011;68337;52.196;5.660;2024-03-07T12:07:30;20.00;;;13.02;;
75320;SDS011;68337;52.196;5.660;2024-03-07T12:09:56;21.67;;;13.15;;
75320;SDS011;68337;52.196;5.660;2024-03-07T12:12:22;18.35;;;12.40;;
75320;SDS011;68337;52.196;5.660;2024-03-07T12:14:50;18.52;;;12.40;;
75320;SDS011;68337;52.196;5.660;2024-03-07T12:17:17;20.73;;;13.18;;
75320;SDS011;68337;52.196;5.660;2024-03-07T12:19:43;19.10;;;13.00;;
75320;SDS011;68337;52.196;5.660;2024-03-07T12:22:11;19.60;;;13.25;;
75320;SDS011;68337;52.196;5.660;2024-03-07T12:24:39;19.88;;;13.60;;
75320;SDS011;68337;52.196;5.660;2024-03-07T12:27:07;19.58;;;13.38;;
75320;SDS011;68337;52.196;5.660;2024-03-07T12:29:35;19.08;;;13.32;;
75320;SDS011;68337;52.196;5.660;2024-03-07T12:32:04;19.83;;;13.05;;
75320;SDS011;68337;52.196;5.660;2024-03-07T12:34:33;18.92;;;12.52;;
75320;SDS011;68337;52.196;5.660;2024-03-07T12:37:03;19.30;;;13.55;;
75320;SDS011;68337;52.196;5.660;2024-03-07T12:39:31;23.95;;;12.82;;
75320;SDS011;68337;52.196;5.660;2024-03-07T12:42:02;20.27;;;13.88;;
75320;SDS011;68337;52.196;5.660;2024-03-07T12:44:38;18.05;;;13.07;;
75320;SDS011;68337;52.196;5.660;2024-03-07T12:47:08;15.88;;;11.98;;
75320;SDS011;68337;52.196;5.660;2024-03-07T12:49:35;18.55;;;12.18;;
75320;SDS011;68337;52.196;5.660;2024-03-07T12:52:01;18.85;;;12.05;;
75320;SDS011;68337;52.196;5.660;2024-03-07T12:54:27;16.65;;;12.68;;
75320;SDS011;68337;52.196;5.660;2024-03-07T12:56:54;19.63;;;13.27;;
75320;SDS011;68337;52.196;5.660;2024-03-07T12:59:21;17.75;;;13.40;;
75320;SDS011;68337;52.196;5.660;2024-03-07T13:01:49;17.67;;;12.70;;
75320;SDS011;68337;52.196;5.660;2024-03-07T13:04:15;15.95;;;12.35;;
75320;SDS011;68337;52.196;5.660;2024-03-07T13:06:41;15.98;;;12.02;;
75320;SDS011;68337;52.196;5.660;2024-03-07T13:09:09;15.07;;;11.98;;
75320;SDS011;68337;52.196;5.660;2024-03-07T13:11:37;17.23;;;12.50;;
75320;SDS011;68337;52.196;5.660;2024-03-07T13:14:07;17.40;;;12.98;;
75320;SDS011;68337;52.196;5.660;2024-03-07T13:16:35;18.83;;;12.80;;
75320;SDS011;68337;52.196;5.660;2024-03-07T13:19:00;20.25;;;13.60;;
75320;SDS011;68337;52.196;5.660;2024-03-07T13:21:29;16.55;;;13.40;;
75320;SDS011;68337;52.196;5.660;2024-03-07T13:23:57;19.25;;;13.32;;
75320;SDS011;68337;52.196;5.660;2024-03-07T13:26:23;16.98;;;12.93;;
75320;SDS011;68337;52.196;5.660;2024-03-07T13:28:51;19.23;;;13.73;;
75320;SDS011;68337;52.196;5.660;2024-03-07T13:31:18;18.80;;;13.07;;
75320;SDS011;68337;52.196;5.660;2024-03-07T13:33:45;17.52;;;13.13;;
75320;SDS011;68337;52.196;5.660;2024-03-07T13:36:11;17.85;;;13.48;;
75320;SDS011;68337;52.196;5.660;2024-03-07T13:38:39;18.70;;;13.32;;
75320;SDS011;68337;52.196;5.660;2024-03-07T13:41:05;18.70;;;13.30;;
75320;SDS011;68337;52.196;5.660;2024-03-07T13:43:31;17.40;;;13.27;;
75320;SDS011;68337;52.196;5.660;2024-03-07T13:45:59;15.32;;;12.77;;
75320;SDS011;68337;52.196;5.660;2024-03-07T13:48:25;17.50;;;13.65;;
75320;SDS011;68337;52.196;5.660;2024-03-07T13:50:51;16.50;;;13.48;;
75320;SDS011;68337;52.196;5.660;2024-03-07T13:53:19;17.90;;;13.60;;
75320;SDS011;68337;52.196;5.660;2024-03-07T13:55:53;18.33;;;12.82;;
75320;SDS011;68337;52.196;5.660;2024-03-07T14:01:34;16.70;;;11.95;;
75320;SDS011;68337;52.196;5.660;2024-03-07T14:04:32;15.93;;;11.85;;
75320;SDS011;68337;52.196;5.660;2024-03-07T14:13:05;13.20;;;11.38;;
75320;SDS011;68337;52.196;5.660;2024-03-07T14:16:13;12.90;;;10.50;;
75320;SDS011;68337;52.196;5.660;2024-03-07T14:22:02;14.55;;;10.70;;
75320;SDS011;68337;52.196;5.660;2024-03-07T14:29:55;14.40;;;11.57;;
75320;SDS011;68337;52.196;5.660;2024-03-07T14:32:22;13.60;;;10.60;;
75320;SDS011;68337;52.196;5.660;2024-03-07T14:34:55;14.13;;;11.13;;
75320;SDS011;68337;52.196;5.660;2024-03-07T14:37:33;15.40;;;11.68;;
75320;SDS011;68337;52.196;5.660;2024-03-07T14:40:06;14.85;;;11.20;;
75320;SDS011;68337;52.196;5.660;2024-03-07T14:42:41;13.57;;;11.50;;
75320;SDS011;68337;52.196;5.660;2024-03-07T14:45:11;16.20;;;11.52;;
75320;SDS011;68337;52.196;5.660;2024-03-07T14:47:44;15.88;;;11.63;;